Time;durP1;ratioP1;P1;durP2;ratioP2;P2;SDS_P1;SDS_P2;PMS_P1;PMS_P2;Temp;Humidity;BMP_temperature;BMP_pressure;BME280_temperature;BME280_humidity;BME280_pressure;Samples;Min_cycle;Max_cycle;Signal;HPM_P1;HPM_P2
2022/11/09 00:01:12;;;;;;;34.50;18.33;;;;;;;11.76;100.00;98975.16;4841529;29;20073;-71
2022/11/09 00:03:59;;;;;;;24.02;13.63;;;;;;;12.11;100.00;98980.69;4841405;29;20061;-71
2022/11/09 00:06:43;;;;;;;29.95;16.13;;;;;;;11.37;100.00;98982.22;4844300;29;20060;-71
2022/11/09 00:09:28;;;;;;;27.27;15.10;;;;;;;11.92;100.00;98987.19;4842259;29;20098;-71
2022/11/09 00:12:12;;;;;;;28.55;16.55;;;;;;;12.44;100.00;98974.75;4845274;29;20053;-71
2022/11/09 00:14:57;;;;;;;30.67;14.57;;;;;;;12.20;100.00;98982.63;4828943;29;20092;-70
2022/11/09 00:17:42;;;;;;;24.85;13.82;;;;;;;12.22;100.00;98979.91;4841268;29;20337;-69
2022/11/09 00:20:27;;;;;;;29.88;14.95;;;;;;;12.62;100.00;98979.63;4841331;29;20062;-71
2022/11/09 00:23:11;;;;;;;27.33;14.93;;;;;;;12.60;100.00;98972.81;4829917;29;20042;-70
2022/11/09 00:26:03;;;;;;;29.17;17.10;;;;;;;12.86;97.03;98977.91;4837839;29;20081;-71
2022/11/09 00:28:49;;;;;;;29.75;16.17;;;;;;;12.67;98.12;98982.75;4844498;29;20041;-71
2022/11/09 00:31:34;;;;;;;30.88;15.90;;;;;;;12.05;100.00;98984.53;4824266;29;21114;-70
2022/11/09 00:34:19;;;;;;;26.15;14.13;;;;;;;12.17;100.00;98982.88;4843469;29;20049;-70
2022/11/09 00:37:04;;;;;;;27.25;15.32;;;;;;;12.51;100.00;98984.81;4837075;29;20564;-70
2022/11/09 00:39:49;;;;;;;32.45;17.85;;;;;;;12.71;97.19;98987.78;4882387;29;20032;-70
2022/11/09 00:42:33;;;;;;;29.08;14.85;;;;;;;12.41;100.00;98988.13;4870279;29;20028;-70
2022/11/09 00:45:19;;;;;;;25.67;14.30;;;;;;;12.59;100.00;98985.09;4886248;29;20061;-69
2022/11/09 00:48:03;;;;;;;31.17;16.80;;;;;;;12.58;98.28;98988.69;4883409;29;20253;-70
2022/11/09 00:50:53;;;;;;;27.63;15.50;;;;;;;12.32;100.00;98988.81;4881738;29;20043;-70
2022/11/09 00:53:38;;;;;;;32.28;16.60;;;;;;;12.57;97.93;98984.38;4879020;29;20307;-71
2022/11/09 00:56:23;;;;;;;33.15;17.25;;;;;;;12.41;100.00;98988.13;4887159;29;20104;-70
2022/11/09 00:59:10;;;;;;;33.70;17.92;;;;;;;12.20;100.00;98993.16;4884033;29;20115;-70
2022/11/09 01:01:56;;;;;;;30.50;17.10;;;;;;;12.37;100.00;98985.84;4883567;29;20124;-70
2022/11/09 01:04:40;;;;;;;27.40;15.50;;;;;;;12.51;100.00;98977.78;4890036;29;20065;-70
2022/11/09 01:07:25;;;;;;;36.65;18.98;;;;;;;12.49;97.22;98982.31;4882759;29;20095;-71
2022/11/09 01:10:10;;;;;;;26.33;14.82;;;;;;;12.04;100.00;98975.00;4884446;29;20544;-70
2022/11/09 01:12:55;;;;;;;30.42;16.27;;;;;;;12.40;100.00;98983.00;4883530;29;20480;-70
2022/11/09 01:16:07;;;;;;;26.63;14.60;;;;;;;12.25;100.00;98980.53;4881091;29;20443;-71
2022/11/09 01:18:55;;;;;;;29.15;16.50;;;;;;;12.68;100.00;98976.53;4887081;29;20066;-71
2022/11/09 01:21:41;;;;;;;32.08;16.17;;;;;;;12.56;100.00;98972.19;4874295;29;20033;-71
2022/11/09 01:24:26;;;;;;;29.63;16.23;;;;;;;12.36;100.00;98961.34;4883546;29;20056;-70
2022/11/09 01:27:14;;;;;;;27.55;14.93;;;;;;;12.71;100.00;98961.50;4881422;29;20041;-70
2022/11/09 01:29:58;;;;;;;30.27;15.27;;;;;;;12.83;100.00;98970.25;4880977;29;20041;-70
2022/11/09 01:32:43;;;;;;;29.75;15.80;;;;;;;12.65;99.74;98963.63;4885079;29;20037;-69
2022/11/09 01:35:29;;;;;;;27.70;16.60;;;;;;;12.46;100.00;98958.88;4880961;29;20049;-71
2022/11/09 01:38:13;;;;;;;32.38;17.17;;;;;;;12.49;99.94;98963.06;4894543;29;20112;-71
2022/11/09 01:40:58;;;;;;;28.80;15.73;;;;;;;12.03;100.00;98953.13;4868490;29;20061;-69
2022/11/09 01:43:43;;;;;;;27.60;15.20;;;;;;;12.59;100.00;98947.47;4885027;29;20052;-70
2022/11/09 01:46:57;;;;;;;31.52;17.00;;;;;;;12.60;99.74;98947.34;4883143;29;20036;-70
2022/11/09 01:49:57;;;;;;;33.95;17.10;;;;;;;12.23;100.00;98945.66;4803697;29;20061;-70
2022/11/09 01:52:44;;;;;;;35.08;17.50;;;;;;;12.38;100.00;98943.69;4798717;29;20038;-71
2022/11/09 01:55:29;;;;;;;30.10;16.00;;;;;;;12.06;100.00;98939.78;4799950;29;20195;-69
2022/11/09 01:58:19;;;;;;;28.50;16.63;;;;;;;12.31;100.00;98950.34;4800650;29;20039;-71
2022/11/09 02:01:09;;;;;;;30.02;15.50;;;;;;;12.10;100.00;98950.94;4812832;29;20071;-70
2022/11/09 02:04:28;;;;;;;29.70;16.65;;;;;;;12.19;99.92;98952.09;4793837;29;20049;-71
2022/11/09 02:07:13;;;;;;;27.58;16.35;;;;;;;12.13;100.00;98953.34;4733269;30;20140;-72
2022/11/09 02:10:05;;;;;;;33.10;16.13;;;;;;;12.46;98.90;98956.25;4728310;30;20050;-71
2022/11/09 02:12:51;;;;;;;31.67;17.23;;;;;;;12.25;100.00;98953.41;4743805;30;20060;-69
2022/11/09 02:15:36;;;;;;;31.42;17.80;;;;;;;12.18;100.00;98939.88;4733210;30;20052;-70
2022/11/09 02:18:21;;;;;;;27.88;14.95;;;;;;;12.19;100.00;98942.41;4745260;30;20420;-70
2022/11/09 02:21:06;;;;;;;29.60;15.38;;;;;;;12.62;100.00;98939.34;4735620;30;20056;-69
2022/11/09 02:23:51;;;;;;;27.80;16.70;;;;;;;12.55;100.00;98939.00;4720086;30;20064;-70
2022/11/09 02:26:51;;;;;;;31.50;15.57;;;;;;;12.51;99.94;98934.91;4778756;29;20053;-71
2022/11/09 02:29:40;;;;;;;28.73;16.27;;;;;;;12.43;99.83;98930.22;4793470;29;20078;-71
2022/11/09 02:32:28;;;;;;;29.58;15.75;;;;;;;11.83;100.00;98926.53;4810982;29;20060;-71
2022/11/09 02:35:15;;;;;;;31.48;16.27;;;;;;;12.27;100.00;98930.50;4801948;29;20195;-70
2022/11/09 02:37:59;;;;;;;30.65;16.88;;;;;;;12.21;99.19;98921.28;4801500;29;20060;-71
2022/11/09 02:40:48;;;;;;;30.48;17.15;;;;;;;12.13;100.00;98923.63;4815419;29;20053;-70
2022/11/09 02:43:35;;;;;;;27.42;15.18;;;;;;;12.24;100.00;98925.47;4854861;29;20048;-70
2022/11/09 02:46:25;;;;;;;27.88;14.45;;;;;;;12.43;100.00;98922.34;4868894;29;20049;-70
2022/11/09 02:49:10;;;;;;;33.85;17.83;;;;;;;12.22;100.00;98927.38;4882101;29;20051;-69
2022/11/09 02:51:54;;;;;;;27.08;13.93;;;;;;;12.11;100.00;98925.53;4877558;29;20104;-69
2022/11/09 02:54:39;;;;;;;33.60;18.33;;;;;;;12.18;98.82;98930.22;4883329;29;20123;-70
2022/11/09 02:57:24;;;;;;;29.48;14.88;;;;;;;12.66;99.57;98930.31;4879299;29;20153;-70
2022/11/09 03:00:10;;;;;;;27.83;15.38;;;;;;;12.37;100.00;98928.03;4883136;29;20063;-69
2022/11/09 03:02:55;;;;;;;28.95;15.05;;;;;;;12.44;100.00;98930.09;4879706;29;20060;-70
2022/11/09 03:05:42;;;;;;;26.67;15.35;;;;;;;12.42;98.81;98929.38;4881514;29;20052;-70
2022/11/09 03:08:28;;;;;;;28.65;15.55;;;;;;;12.09;100.00;98923.03;4892382;29;20049;-70
2022/11/09 03:11:13;;;;;;;29.88;16.17;;;;;;;12.55;98.36;98929.28;4881005;29;20068;-70
2022/11/09 03:13:58;;;;;;;25.45;14.90;;;;;;;12.38;99.64;98927.09;4888376;29;20402;-70
2022/11/09 03:16:42;;;;;;;28.52;15.38;;;;;;;12.07;100.00;98930.13;4881022;29;20374;-70
2022/11/09 03:19:27;;;;;;;27.95;15.25;;;;;;;12.16;100.00;98934.75;4881694;29;20457;-70
2022/11/09 03:22:12;;;;;;;26.80;14.57;;;;;;;12.32;100.00;98931.84;4878580;29;20092;-70
2022/11/09 03:24:56;;;;;;;29.63;14.73;;;;;;;12.41;100.00;98922.44;4883475;29;20131;-69
2022/11/09 03:27:41;;;;;;;28.77;15.63;;;;;;;12.67;98.21;98927.56;4879652;29;20096;-70
2022/11/09 03:30:27;;;;;;;26.33;13.68;;;;;;;12.39;99.78;98924.34;4877957;29;20061;-70
2022/11/09 03:33:13;;;;;;;27.13;15.25;;;;;;;12.36;100.00;98935.09;4871259;29;20379;-70
2022/11/09 03:35:58;;;;;;;31.33;15.95;;;;;;;12.02;100.00;98935.72;4850275;29;20057;-70
2022/11/09 03:38:43;;;;;;;24.88;14.35;;;;;;;12.42;100.00;98934.63;4876473;29;20044;-69
2022/11/09 03:41:28;;;;;;;26.55;14.30;;;;;;;12.08;100.00;98931.84;4880262;29;20044;-70
2022/11/09 03:44:13;;;;;;;27.13;14.63;;;;;;;12.61;98.86;98938.53;4873983;29;20465;-71
2022/11/09 03:46:58;;;;;;;28.05;15.05;;;;;;;12.74;98.78;98927.09;4880026;29;20191;-70
2022/11/09 03:49:42;;;;;;;29.55;15.80;;;;;;;12.08;98.43;98937.09;4883448;29;20056;-70
2022/11/09 03:52:27;;;;;;;29.42;17.08;;;;;;;12.07;100.00;98940.63;4882614;29;20045;-70
2022/11/09 03:55:13;;;;;;;29.35;14.52;;;;;;;12.17;100.00;98943.47;4881016;29;20055;-70
2022/11/09 03:57:58;;;;;;;25.52;14.35;;;;;;;11.98;100.00;98930.81;4883556;29;20037;-70
2022/11/09 04:00:42;;;;;;;25.17;14.10;;;;;;;12.09;100.00;98940.56;4878891;29;20065;-70
2022/11/09 04:03:27;;;;;;;26.25;14.82;;;;;;;12.39;98.62;98926.97;4884181;29;20398;-70
2022/11/09 04:06:12;;;;;;;27.17;13.95;;;;;;;12.27;100.00;98927.88;4880727;29;20041;-70
2022/11/09 04:08:57;;;;;;;24.25;13.43;;;;;;;12.35;100.00;98922.91;4883508;29;20053;-70
2022/11/09 04:11:41;;;;;;;29.58;15.60;;;;;;;12.31;97.44;98927.53;4883915;29;20045;-70
2022/11/09 04:14:26;;;;;;;29.35;15.40;;;;;;;12.16;100.00;98923.38;4880621;29;20072;-70
2022/11/09 04:17:11;;;;;;;23.23;13.27;;;;;;;12.33;100.00;98916.91;4886338;29;20045;-71
2022/11/09 04:19:56;;;;;;;23.10;12.85;;;;;;;12.71;98.84;98922.06;4883007;29;20047;-71
2022/11/09 04:22:40;;;;;;;25.98;14.60;;;;;;;12.72;97.04;98923.72;4885626;29;20101;-72
2022/11/09 04:25:26;;;;;;;26.88;14.82;;;;;;;12.65;97.30;98925.97;4891975;29;20116;-71
2022/11/09 04:28:11;;;;;;;25.58;14.05;;;;;;;12.45;97.91;98920.44;4871324;29;20045;-70
2022/11/09 04:30:59;;;;;;;26.08;13.63;;;;;;;12.22;98.81;98924.75;4891248;29;20045;-71
2022/11/09 04:33:48;;;;;;;26.50;14.25;;;;;;;12.46;98.26;98916.84;4854090;29;20048;-70
2022/11/09 04:36:33;;;;;;;22.35;12.80;;;;;;;12.41;99.96;98913.72;4880462;29;20116;-69
2022/11/09 04:39:18;;;;;;;29.65;14.77;;;;;;;12.38;98.02;98914.78;4888343;29;20083;-69
2022/11/09 04:42:03;;;;;;;23.20;12.98;;;;;;;11.81;100.00;98917.09;4888384;29;20100;-69
2022/11/09 04:44:48;;;;;;;28.23;15.05;;;;;;;11.89;100.00;98916.53;4883657;29;20045;-71
2022/11/09 04:47:32;;;;;;;22.95;12.82;;;;;;;11.99;100.00;98917.56;4887734;29;20473;-71
2022/11/09 04:50:17;;;;;;;25.48;13.70;;;;;;;11.75;100.00;98920.97;4878810;29;20092;-72
2022/11/09 04:53:14;;;;;;;24.83;13.13;;;;;;;11.61;100.00;98916.72;4881669;29;20041;-71
2022/11/09 04:55:59;;;;;;;24.55;13.05;;;;;;;12.04;100.00;98923.31;4884392;29;20047;-72
2022/11/09 04:58:43;;;;;;;24.90;14.57;;;;;;;11.92;100.00;98919.78;4888561;29;20053;-72
2022/11/09 05:01:28;;;;;;;30.17;14.68;;;;;;;11.96;100.00;98904.66;4883284;29;20041;-72
2022/11/09 05:04:13;;;;;;;25.73;13.90;;;;;;;11.21;100.00;98902.81;4887369;29;20100;-71
2022/11/09 05:06:57;;;;;;;23.67;12.60;;;;;;;11.80;100.00;98905.75;4887617;29;20096;-71
2022/11/09 05:09:41;;;;;;;27.00;13.95;;;;;;;12.01;100.00;98913.03;4882736;29;20123;-71
2022/11/09 05:12:26;;;;;;;39.00;17.88;;;;;;;10.19;100.00;98928.72;4875750;29;20041;-71
2022/11/09 05:15:11;;;;;;;37.78;18.70;;;;;;;9.67;100.00;98912.78;4881730;29;20366;-71
2022/11/09 05:17:56;;;;;;;42.63;20.23;;;;;;;9.25;100.00;98910.97;4869393;29;20041;-72
2022/11/09 05:20:40;;;;;;;42.97;20.17;;;;;;;9.18;100.00;98914.88;4892088;29;20037;-70
2022/11/09 05:26:33;;;;;;;39.15;18.85;;;;;;;8.96;100.00;98906.53;4912756;29;20052;-71
2022/11/09 05:29:17;;;;;;;38.90;19.13;;;;;;;9.01;100.00;98908.88;4896130;29;20045;-71
2022/11/09 05:32:02;;;;;;;42.38;19.17;;;;;;;8.96;100.00;98911.75;4894304;29;20060;-70
2022/11/09 05:34:47;;;;;;;45.13;21.60;;;;;;;8.87;100.00;98907.09;4891263;29;20048;-70
2022/11/09 05:37:31;;;;;;;43.63;21.02;;;;;;;8.70;100.00;98902.88;4882702;29;20048;-69
2022/11/09 05:40:18;;;;;;;42.63;19.58;;;;;;;8.77;100.00;98911.16;4896732;29;20049;-70
2022/11/09 05:43:02;;;;;;;42.42;19.77;;;;;;;8.90;100.00;98919.13;4884543;29;20183;-70
2022/11/09 05:45:47;;;;;;;41.05;19.45;;;;;;;8.65;100.00;98916.19;4880177;29;20048;-71
2022/11/09 05:48:32;;;;;;;47.53;21.25;;;;;;;8.53;100.00;98922.09;4882293;29;20104;-70
2022/11/09 05:51:17;;;;;;;45.80;20.92;;;;;;;8.52;100.00;98928.25;4882086;29;20092;-71
2022/11/09 05:54:02;;;;;;;42.13;19.42;;;;;;;8.69;100.00;98914.22;4889150;29;20053;-70
2022/11/09 05:56:47;;;;;;;47.28;21.40;;;;;;;8.58;100.00;98920.94;4890642;29;20053;-71
2022/11/09 05:59:32;;;;;;;44.40;21.05;;;;;;;8.62;100.00;98921.59;4874097;29;20048;-69
2022/11/09 06:02:16;;;;;;;41.85;18.83;;;;;;;8.63;100.00;98925.91;4881958;29;20056;-70
2022/11/09 06:05:01;;;;;;;41.22;20.65;;;;;;;8.62;100.00;98921.59;4884517;29;20048;-71
2022/11/09 06:07:46;;;;;;;42.97;20.77;;;;;;;8.67;100.00;98927.38;4882350;29;20059;-69
2022/11/09 06:10:31;;;;;;;47.38;22.35;;;;;;;8.54;100.00;98926.38;4878456;29;20509;-71
2022/11/09 06:13:16;;;;;;;45.72;22.08;;;;;;;8.29;100.00;98926.00;4885466;29;20095;-71
2022/11/09 06:16:02;;;;;;;47.30;23.70;;;;;;;8.26;100.00;98937.47;4882061;29;20056;-71
2022/11/09 06:18:47;;;;;;;49.97;22.55;;;;;;;8.31;100.00;98928.53;4885134;29;20160;-72
2022/11/09 06:21:31;;;;;;;49.75;22.35;;;;;;;8.17;100.00;98937.13;4887748;29;20060;-71
2022/11/09 06:24:16;;;;;;;42.63;20.20;;;;;;;8.41;100.00;98934.91;4882740;29;20040;-75
2022/11/09 06:27:01;;;;;;;45.83;21.65;;;;;;;8.55;100.00;98933.31;4878180;29;20041;-73
2022/11/09 06:29:46;;;;;;;48.47;22.15;;;;;;;8.57;100.00;98936.69;4877215;29;20060;-72
2022/11/09 06:32:30;;;;;;;46.22;22.50;;;;;;;8.42;100.00;98948.81;4884362;29;20036;-71
2022/11/09 06:35:15;;;;;;;45.92;22.20;;;;;;;8.36;100.00;98944.78;4882715;29;20107;-72
2022/11/09 06:38:00;;;;;;;47.05;22.50;;;;;;;8.55;100.00;98939.38;4879714;29;20048;-72
2022/11/09 06:40:45;;;;;;;43.95;21.67;;;;;;;8.47;100.00;98942.41;4883516;29;20033;-72
2022/11/09 06:43:29;;;;;;;47.75;21.77;;;;;;;8.46;100.00;98945.09;4880817;29;20066;-73
2022/11/09 06:46:17;;;;;;;44.88;20.48;;;;;;;8.67;100.00;98937.81;4883399;29;20568;-72
2022/11/09 06:49:02;;;;;;;48.47;23.13;;;;;;;8.52;100.00;98936.09;4881266;29;20045;-71
2022/11/09 06:51:46;;;;;;;41.22;20.05;;;;;;;8.39;100.00;98934.16;4883879;29;20044;-71
2022/11/09 06:54:32;;;;;;;46.42;21.58;;;;;;;8.35;100.00;98933.50;4878693;29;20060;-72
2022/11/09 06:57:17;;;;;;;46.40;21.13;;;;;;;8.17;100.00;98945.81;4887547;29;20464;-71
2022/11/09 07:00:04;;;;;;;46.88;21.15;;;;;;;8.31;100.00;98952.88;4880250;29;20043;-71
2022/11/09 07:02:50;;;;;;;48.53;21.27;;;;;;;8.42;100.00;98935.78;4883717;29;20069;-73
2022/11/09 07:05:38;;;;;;;42.20;20.13;;;;;;;8.55;100.00;98941.16;4884984;29;20037;-74
2022/11/09 07:08:23;;;;;;;46.95;22.08;;;;;;;8.34;100.00;98942.25;4874576;29;20036;-73
2022/11/09 07:11:11;;;;;;;42.95;20.48;;;;;;;8.27;100.00;98940.94;4880340;29;20120;-72
2022/11/09 07:13:55;;;;;;;42.22;19.83;;;;;;;8.35;100.00;98940.50;4861478;29;20048;-73
2022/11/09 07:16:40;;;;;;;44.10;20.38;;;;;;;8.31;100.00;98934.59;4882752;29;20059;-73
2022/11/09 07:19:25;;;;;;;43.70;20.00;;;;;;;8.25;100.00;98927.97;4881352;29;20349;-72
2022/11/09 07:22:12;;;;;;;42.58;19.55;;;;;;;8.62;100.00;98935.50;4880844;29;20036;-73
2022/11/09 07:24:57;;;;;;;42.08;22.00;;;;;;;8.48;100.00;98928.44;4880113;29;20040;-73
2022/11/09 07:27:41;;;;;;;44.53;20.90;;;;;;;8.23;100.00;98934.19;4870033;29;20045;-71
2022/11/09 07:30:26;;;;;;;39.83;19.00;;;;;;;8.45;100.00;98944.28;4878176;29;20040;-72
2022/11/09 07:33:13;;;;;;;45.72;20.50;;;;;;;8.50;100.00;98942.22;4876177;29;20045;-73
2022/11/09 07:36:00;;;;;;;44.65;21.58;;;;;;;8.47;100.00;98939.78;4885563;29;20109;-73
2022/11/09 07:38:44;;;;;;;44.70;21.38;;;;;;;8.29;100.00;98941.66;4880954;29;20057;-73
2022/11/09 07:41:29;;;;;;;43.33;20.90;;;;;;;8.36;100.00;98939.56;4880022;29;20045;-73
2022/11/09 07:44:17;;;;;;;40.85;19.30;;;;;;;8.45;100.00;98933.84;4885146;29;20045;-72
2022/11/09 07:47:01;;;;;;;42.08;19.10;;;;;;;8.66;100.00;98927.47;4879281;29;20051;-73
2022/11/09 07:49:46;;;;;;;44.70;20.35;;;;;;;8.42;100.00;98926.16;4877615;29;20044;-72
2022/11/09 07:52:31;;;;;;;42.17;18.75;;;;;;;8.47;100.00;98921.50;4878025;29;20045;-72
2022/11/09 07:55:16;;;;;;;41.05;19.15;;;;;;;8.59;100.00;98922.59;4860972;29;20041;-72
2022/11/09 07:58:06;;;;;;;39.67;18.92;;;;;;;8.65;100.00;98925.81;4882902;29;20045;-72
2022/11/09 08:00:51;;;;;;;41.47;19.05;;;;;;;8.67;100.00;98927.38;4883202;29;20473;-73
2022/11/09 08:03:36;;;;;;;37.22;19.65;;;;;;;8.49;100.00;98919.66;4883179;29;20047;-71
2022/11/09 08:06:23;;;;;;;41.60;20.92;;;;;;;8.46;100.00;98919.84;4882648;29;20041;-71
2022/11/09 08:09:08;;;;;;;40.15;19.38;;;;;;;8.31;100.00;98912.88;4879092;29;20120;-72
2022/11/09 08:11:52;;;;;;;39.63;19.30;;;;;;;8.38;100.00;98922.91;4880534;29;20048;-72
2022/11/09 08:14:37;;;;;;;36.85;19.05;;;;;;;8.41;100.00;98927.09;4881880;29;20044;-72
2022/11/09 08:17:21;;;;;;;37.33;18.98;;;;;;;8.48;100.00;98920.59;4886696;29;20049;-73
2022/11/09 08:20:07;;;;;;;40.42;20.63;;;;;;;8.14;100.00;98925.94;4892317;29;20045;-72
2022/11/09 08:22:51;;;;;;;37.33;19.65;;;;;;;8.10;100.00;98931.41;4879068;29;20055;-72
2022/11/09 08:25:36;;;;;;;41.72;20.15;;;;;;;8.20;100.00;98939.56;4883818;29;20041;-71
2022/11/09 08:28:21;;;;;;;37.17;18.75;;;;;;;8.56;100.00;98935.00;4885853;29;20040;-72
2022/11/09 08:31:07;;;;;;;42.20;19.75;;;;;;;8.55;100.00;98931.53;4889972;29;20059;-72
2022/11/09 08:33:51;;;;;;;42.83;21.25;;;;;;;8.37;100.00;98931.63;4882328;29;20048;-72
2022/11/09 08:36:35;;;;;;;43.65;20.75;;;;;;;8.48;100.00;98935.41;4863244;29;20043;-72
2022/11/09 08:39:22;;;;;;;42.17;19.58;;;;;;;8.42;100.00;98946.22;4883446;29;20250;-72
2022/11/09 08:42:07;;;;;;;37.45;20.25;;;;;;;8.28;100.00;98957.41;4864767;29;20037;-72
2022/11/09 08:44:52;;;;;;;41.50;20.05;;;;;;;8.43;100.00;98951.34;4880916;29;20045;-74
2022/11/09 08:47:38;;;;;;;38.47;19.30;;;;;;;8.44;100.00;98954.78;4866373;29;20112;-72
2022/11/09 08:50:25;;;;;;;42.92;21.52;;;;;;;8.63;100.00;98955.44;4879022;29;20052;-74
2022/11/09 08:53:10;;;;;;;41.40;19.90;;;;;;;8.61;100.00;98952.09;4883587;29;21293;-76
2022/11/09 08:55:55;;;;;;;39.65;20.58;;;;;;;8.65;100.00;98951.91;4882225;29;20096;-77
2022/11/09 08:58:40;;;;;;;40.38;20.42;;;;;;;8.67;100.00;98950.88;4884234;29;20048;-77
2022/11/09 09:01:25;;;;;;;39.90;19.80;;;;;;;9.02;100.00;98949.78;4883578;29;20452;-76
2022/11/09 09:04:09;;;;;;;42.30;20.65;;;;;;;8.64;100.00;98945.84;4890435;29;20058;-74
2022/11/09 09:06:54;;;;;;;39.55;19.83;;;;;;;8.76;100.00;98954.75;4865405;29;20483;-75
2022/11/09 09:09:39;;;;;;;49.17;23.42;;;;;;;8.66;100.00;98954.44;4883144;29;20100;-74
2022/11/09 09:12:24;;;;;;;47.75;21.48;;;;;;;8.74;100.00;98964.44;4887620;29;20037;-74
2022/11/09 09:15:09;;;;;;;45.35;21.95;;;;;;;8.90;100.00;98964.38;4886225;29;20119;-74
2022/11/09 09:17:53;;;;;;;47.22;22.55;;;;;;;9.03;100.00;98958.44;4880908;29;20048;-76
2022/11/09 09:20:38;;;;;;;44.22;22.05;;;;;;;8.96;100.00;98940.50;4885956;29;20104;-75
2022/11/09 09:23:22;;;;;;;48.30;23.60;;;;;;;8.89;100.00;98944.44;4884229;29;20045;-75
2022/11/09 09:26:07;;;;;;;40.97;21.38;;;;;;;8.86;100.00;98949.84;4887388;29;20116;-74
2022/11/09 09:28:51;;;;;;;44.28;22.25;;;;;;;9.19;100.00;98951.38;4884995;29;20048;-75
2022/11/09 09:31:36;;;;;;;44.25;23.23;;;;;;;9.23;100.00;98944.19;4891452;29;20037;-76
2022/11/09 09:34:20;;;;;;;43.05;23.33;;;;;;;8.94;100.00;98939.78;4875562;29;20083;-75
2022/11/09 09:37:05;;;;;;;46.03;22.85;;;;;;;8.80;100.00;98942.34;4880615;29;20033;-75
2022/11/09 09:39:50;;;;;;;43.42;22.77;;;;;;;8.70;100.00;98953.31;4871409;29;20052;-74
2022/11/09 09:42:41;;;;;;;42.63;21.98;;;;;;;8.95;100.00;98946.69;4913330;23;20041;-73
2022/11/09 09:45:30;;;;;;;51.30;23.15;;;;;;;8.95;100.00;98940.59;4874032;29;20044;-73
2022/11/09 09:48:31;;;;;;;46.17;23.30;;;;;;;9.15;100.00;98949.03;4881081;29;20053;-74
2022/11/09 09:51:22;;;;;;;44.67;22.42;;;;;;;9.05;100.00;98951.34;4885685;29;20045;-75
2022/11/09 09:54:15;;;;;;;43.08;21.88;;;;;;;8.94;100.00;98952.84;4867518;29;20466;-77
2022/11/09 09:57:01;;;;;;;52.42;23.63;;;;;;;8.87;100.00;98948.91;4884807;29;20052;-76
2022/11/09 09:59:55;;;;;;;43.13;20.83;;;;;;;9.13;100.00;98956.97;4883210;29;20055;-73
2022/11/09 10:02:40;;;;;;;42.35;21.80;;;;;;;9.36;100.00;98960.81;4894006;29;20470;-76
2022/11/09 10:05:36;;;;;;;41.72;22.15;;;;;;;9.21;100.00;98956.50;4872360;29;20041;-75
2022/11/09 10:09:06;;;;;;;45.53;21.42;;;;;;;8.98;100.00;98950.88;4881626;29;20442;-75
2022/11/09 10:12:09;;;;;;;44.75;21.90;;;;;;;8.97;100.00;98950.03;4889270;29;20883;-73
2022/11/09 10:15:02;;;;;;;41.90;21.27;;;;;;;8.96;100.00;98939.69;4892442;29;20055;-73
2022/11/09 10:18:19;;;;;;;42.22;21.25;;;;;;;9.02;100.00;98944.53;4888985;29;20469;-74
2022/11/09 10:21:45;;;;;;;44.40;22.25;;;;;;;8.97;100.00;98938.75;4874334;29;20144;-73
2022/11/09 10:24:29;;;;;;;46.90;22.83;;;;;;;9.15;100.00;98935.97;4892406;29;20041;-75
2022/11/09 10:27:35;;;;;;;40.72;21.48;;;;;;;9.35;100.00;98940.00;4880426;29;20459;-76
2022/11/09 10:30:21;;;;;;;42.58;22.67;;;;;;;9.29;100.00;98935.13;4882862;29;20044;-74
2022/11/09 10:33:08;;;;;;;41.97;20.92;;;;;;;9.50;100.00;98943.44;4881343;29;20052;-74
2022/11/09 10:35:53;;;;;;;44.05;21.33;;;;;;;9.28;100.00;98941.28;4878638;29;20051;-74
2022/11/09 10:38:43;;;;;;;43.58;22.02;;;;;;;9.28;100.00;98944.75;4882922;29;20077;-74
2022/11/09 10:41:47;;;;;;;41.97;21.10;;;;;;;9.41;100.00;98949.22;4869502;29;20120;-74
2022/11/09 10:44:50;;;;;;;40.72;21.00;;;;;;;9.34;100.00;98946.16;4882461;29;20057;-74
2022/11/09 10:47:54;;;;;;;38.78;20.83;;;;;;;9.51;100.00;98946.91;4880852;29;20053;-75
2022/11/09 10:50:57;;;;;;;43.08;21.52;;;;;;;9.51;100.00;98941.66;4882343;29;20135;-75
2022/11/09 10:54:26;;;;;;;40.05;20.88;;;;;;;9.53;100.00;98947.66;4869094;29;20457;-74
2022/11/09 10:57:29;;;;;;;38.47;21.17;;;;;;;9.40;100.00;98945.75;4880768;29;20080;-75
2022/11/09 11:00:33;;;;;;;44.60;21.77;;;;;;;9.34;100.00;98946.16;4877366;29;20049;-74
2022/11/09 11:03:38;;;;;;;38.85;20.90;;;;;;;9.31;100.00;98938.50;4879197;29;20136;-77
2022/11/09 11:06:41;;;;;;;37.90;21.45;;;;;;;9.56;100.00;98948.31;4878229;29;20067;-76
2022/11/09 11:09:44;;;;;;;37.00;20.23;;;;;;;9.55;100.00;98951.00;4883568;29;20081;-76
2022/11/09 11:12:56;;;;;;;40.92;20.40;;;;;;;9.80;100.00;98947.72;4881898;29;20041;-75
2022/11/09 11:15:59;;;;;;;40.60;21.02;;;;;;;9.82;100.00;98952.84;4888297;29;20041;-75
2022/11/09 11:19:04;;;;;;;36.05;19.02;;;;;;;9.88;100.00;98947.22;4886010;29;20490;-76
2022/11/09 11:22:10;;;;;;;35.70;18.33;;;;;;;10.04;100.00;98947.09;4881961;29;20064;-76
2022/11/09 11:25:19;;;;;;;33.17;18.50;;;;;;;10.02;100.00;98945.53;4882384;29;20140;-73
2022/11/09 11:28:34;;;;;;;34.40;18.75;;;;;;;9.88;100.00;98942.00;4883447;29;20063;-75
2022/11/09 11:31:38;;;;;;;44.10;19.88;;;;;;;9.74;100.00;98937.63;4888193;29;20388;-74
2022/11/09 11:34:42;;;;;;;37.20;18.90;;;;;;;9.79;100.00;98945.19;4877360;29;20064;-73
2022/11/09 11:38:01;;;;;;;37.70;18.77;;;;;;;9.85;100.00;98950.03;4879026;29;20044;-73
2022/11/09 11:41:22;;;;;;;34.38;18.75;;;;;;;9.86;100.00;98960.41;4881337;29;20135;-74
2022/11/09 11:44:35;;;;;;;31.23;17.92;;;;;;;9.93;100.00;98950.41;4883626;29;20137;-75
2022/11/09 11:47:58;;;;;;;31.67;17.85;;;;;;;10.07;100.00;98956.53;4877531;29;20041;-75
2022/11/09 11:51:14;;;;;;;31.92;18.30;;;;;;;9.88;100.00;98949.84;4878642;29;20450;-74
2022/11/09 11:54:20;;;;;;;29.60;15.50;;;;;;;9.97;100.00;98948.44;4886380;29;20048;-76
2022/11/09 11:57:47;;;;;;;34.65;19.08;;;;;;;9.83;100.00;98951.91;4888354;29;20049;-77
2022/11/09 12:01:21;;;;;;;38.65;20.35;;;;;;;9.81;100.00;98944.16;4890147;29;20470;-80
2022/11/09 12:04:42;;;;;;;34.58;19.42;;;;;;;9.80;100.00;98949.47;4882734;29;20080;-74
2022/11/09 12:07:59;;;;;;;37.47;20.75;;;;;;;9.88;100.00;98941.16;4887104;29;20055;-76
2022/11/09 12:11:25;;;;;;;42.33;22.65;;;;;;;9.85;100.00;98940.41;4888844;29;20100;-74
2022/11/09 12:14:43;;;;;;;38.85;21.77;;;;;;;9.74;100.00;98937.63;4885985;29;20113;-75
2022/11/09 12:18:07;;;;;;;35.30;20.45;;;;;;;9.60;100.00;98928.00;4889606;29;20135;-79
2022/11/09 12:21:28;;;;;;;33.67;20.27;;;;;;;9.71;100.00;98927.38;4894168;29;20048;-78
2022/11/09 12:24:38;;;;;;;;;;;;;;;9.57;100.00;98925.59;4892841;29;20423;-78
2022/11/09 12:27:59;;;;;;;37.50;20.10;;;;;;;9.82;100.00;98930.16;4887353;29;19935;-76
2022/11/09 12:31:15;;;;;;;37.65;20.85;;;;;;;9.74;100.00;98930.59;4882948;29;20055;-78
2022/11/09 12:34:29;;;;;;;35.08;20.38;;;;;;;9.68;100.00;98925.75;4897790;29;20513;-78
2022/11/09 12:37:38;;;;;;;36.78;20.80;;;;;;;9.63;100.00;98927.81;4898331;29;20052;-77
2022/11/09 12:40:53;;;;;;;35.10;19.92;;;;;;;9.68;100.00;98924.91;4900641;29;20068;-78
2022/11/09 12:44:03;;;;;;;38.63;20.20;;;;;;;9.67;100.00;98923.25;4890688;29;20053;-77
2022/11/09 12:47:14;;;;;;;38.92;20.30;;;;;;;9.57;100.00;98915.13;4903872;29;20056;-78
2022/11/09 12:50:20;;;;;;;35.95;20.42;;;;;;;9.69;100.00;98918.75;4882301;29;20059;-77
2022/11/09 12:53:32;;;;;;;38.05;19.73;;;;;;;9.67;100.00;98928.47;4904845;29;20045;-77
2022/11/09 12:56:45;;;;;;;37.30;20.13;;;;;;;9.66;100.00;98917.16;4898264;29;20040;-82
2022/11/09 12:59:50;;;;;;;;;;;;;;;9.56;100.00;98919.53;4885290;29;20088;-80
2022/11/09 13:02:56;;;;;;;32.67;18.52;;;;;;;9.60;100.00;98925.41;4887177;29;20032;-81
2022/11/09 13:06:09;;;;;;;35.03;19.10;;;;;;;9.61;100.00;98917.44;4900867;29;20049;-81